Time;durP1;ratioP1;P1;durP2;ratioP2;P2;SDS_P1;SDS_P2;PMS_P1;PMS_P2;Temp;Humidity;BMP_temperature;BMP_pressure;BME280_temperature;BME280_humidity;BME280_pressure;Samples;Min_cycle;Max_cycle;Signal;HPM_P1;HPM_P2
2021/09/12 00:02:25;;;;;;;23.77;14.63;;;;;;;11.69;97.29;100151.25;1720333;83;21048;-78
2021/09/12 00:04:52;;;;;;;23.38;13.40;;;;;;;11.71;97.27;100156.45;1720562;83;21048;-78
2021/09/12 00:07:20;;;;;;;22.15;14.85;;;;;;;11.71;97.30;100161.73;1720410;83;21611;-78
2021/09/12 00:09:46;;;;;;;22.22;15.53;;;;;;;11.68;97.20;100146.88;1720656;83;21028;-77
2021/09/12 00:12:13;;;;;;;23.00;13.65;;;;;;;11.67;97.21;100149.61;1720626;83;21145;-79
2021/09/12 00:14:39;;;;;;;34.75;22.42;;;;;;;11.66;97.27;100154.47;1720575;83;21032;-79
2021/09/12 00:17:07;;;;;;;35.35;24.60;;;;;;;11.65;97.37;100156.72;1720443;83;21092;-79
2021/09/12 00:19:34;;;;;;;33.02;22.25;;;;;;;11.63;97.49;100149.33;1720989;83;21601;-77
2021/09/12 00:22:02;;;;;;;28.05;19.65;;;;;;;11.62;97.48;100152.87;1720765;83;21114;-79
2021/09/12 00:24:28;;;;;;;23.30;16.00;;;;;;;11.61;97.38;100161.72;1721005;82;21505;-79
2021/09/12 00:26:55;;;;;;;23.22;15.95;;;;;;;11.60;97.39;100160.02;1722293;83;21005;-78
2021/09/12 00:29:21;;;;;;;23.12;15.30;;;;;;;11.59;97.34;100160.92;1725540;81;20990;-78
2021/09/12 00:31:48;;;;;;;26.35;14.83;;;;;;;11.56;97.39;100157.95;1724569;83;21363;-78
2021/09/12 00:34:15;;;;;;;25.65;15.13;;;;;;;11.55;97.63;100157.56;1722236;83;21116;-78
2021/09/12 00:36:42;;;;;;;24.23;14.20;;;;;;;11.57;97.81;100162.76;1720798;83;21495;-80
2021/09/12 00:39:08;;;;;;;21.50;14.25;;;;;;;11.55;97.82;100161.05;1720677;83;21056;-78
2021/09/12 00:41:40;;;;;;;23.38;14.13;;;;;;;11.53;97.61;100162.89;1720776;82;21124;-79
2021/09/12 00:44:10;;;;;;;;;;;;;;;11.51;97.69;100160.77;1723590;83;21064;-79
2021/09/12 00:46:42;;;;;;;20.88;14.68;;;;;;;11.48;97.77;100162.23;1720770;83;20184;-78
2021/09/12 00:49:09;;;;;;;23.27;15.40;;;;;;;11.45;97.84;100155.73;1720498;83;22172;-79
2021/09/12 00:51:36;;;;;;;28.73;15.80;;;;;;;11.43;98.01;100153.61;1720640;83;21037;-78
2021/09/12 00:54:05;;;;;;;43.17;19.10;;;;;;;11.40;97.95;100155.06;1720870;83;21039;-78
2021/09/12 00:56:34;;;;;;;31.93;16.77;;;;;;;11.41;98.25;100160.76;1725096;83;21120;-78
2021/09/12 00:59:01;;;;;;;31.57;19.17;;;;;;;11.42;98.31;100159.82;1726108;82;21044;-78
2021/09/12 01:01:29;;;;;;;36.35;22.32;;;;;;;11.41;98.09;100155.48;1726129;83;21480;-80
2021/09/12 01:03:55;;;;;;;31.25;19.80;;;;;;;11.42;98.19;100161.14;1726806;82;21024;-79
2021/09/12 01:06:22;;;;;;;30.85;17.87;;;;;;;11.40;98.04;100158.17;1726742;82;21073;-78
2021/09/12 01:08:49;;;;;;;27.30;17.02;;;;;;;11.39;97.99;100154.69;1726345;83;21553;-79
2021/09/12 01:11:17;;;;;;;27.37;16.15;;;;;;;11.37;98.13;100157.84;1726289;82;21014;-79
2021/09/12 01:13:44;;;;;;;24.92;16.52;;;;;;;11.35;98.14;100153.08;1726617;82;21481;-78
2021/09/12 01:16:19;;;;;;;21.80;15.18;;;;;;;11.35;98.25;100155.72;1726229;82;21047;-78
2021/09/12 01:18:48;;;;;;;21.05;14.55;;;;;;;11.34;98.34;100157.94;1726419;82;21077;-78
2021/09/12 01:21:19;;;;;;;21.07;14.65;;;;;;;11.34;98.25;100156.62;1726425;82;21022;-77
2021/09/12 01:23:46;;;;;;;20.97;14.53;;;;;;;11.34;98.43;100156.62;1726442;83;21053;-78
2021/09/12 01:26:13;;;;;;;19.52;14.15;;;;;;;11.32;98.38;100150.58;1726581;82;21577;-79
2021/09/12 01:28:41;;;;;;;22.35;14.75;;;;;;;11.30;98.38;100155.05;1726297;82;22197;-79
2021/09/12 01:31:24;;;;;;;25.68;15.43;;;;;;;11.29;98.61;100155.95;1726144;82;21116;-78
2021/09/12 01:33:50;;;;;;;26.50;14.93;;;;;;;11.26;98.53;100156.94;1726453;83;21108;-80
2021/09/12 01:36:19;;;;;;;22.55;13.62;;;;;;;11.25;98.58;100156.98;1726235;82;21010;-79
2021/09/12 01:38:47;;;;;;;20.30;14.85;;;;;;;11.22;98.53;100155.33;1726347;82;22287;-79
2021/09/12 01:41:14;;;;;;;22.87;15.08;;;;;;;11.18;98.56;100155.51;1726139;82;21048;-78
2021/09/12 01:43:49;;;;;;;30.12;18.75;;;;;;;11.11;98.74;100161.04;1726434;83;21041;-77
2021/09/12 01:46:16;;;;;;;28.30;18.17;;;;;;;11.04;98.95;100156.92;1725991;82;21580;-78
2021/09/12 01:48:44;;;;;;;29.23;19.57;;;;;;;11.01;99.17;100145.63;1726253;82;21096;-77
2021/09/12 01:51:10;;;;;;;26.45;17.57;;;;;;;11.00;99.34;100155.33;1726238;83;21566;-77
2021/09/12 01:53:37;;;;;;;30.57;21.37;;;;;;;11.01;99.39;100158.81;1726447;83;21513;-79
2021/09/12 01:56:05;;;;;;;28.83;19.75;;;;;;;11.01;99.63;100154.39;1726100;83;21124;-75
2021/09/12 01:58:32;;;;;;;32.58;20.25;;;;;;;11.00;99.47;100163.69;1717510;83;21046;-77
2021/09/12 02:00:58;;;;;;;32.42;19.30;;;;;;;10.99;99.38;100160.17;1713688;83;21120;-78
2021/09/12 02:03:25;;;;;;;27.93;19.32;;;;;;;10.99;99.51;100150.95;1716000;83;21380;-77
2021/09/12 02:05:51;;;;;;;30.23;17.82;;;;;;;10.99;99.46;100148.31;1715812;82;21584;-78
2021/09/12 02:08:19;;;;;;;38.10;18.77;;;;;;;10.97;99.47;100150.14;1715679;83;21113;-77
2021/09/12 02:10:46;;;;;;;29.82;17.70;;;;;;;10.96;99.44;100151.08;1714043;82;21061;-78
2021/09/12 02:13:13;;;;;;;35.75;19.12;;;;;;;10.94;99.55;100150.27;1713721;82;21101;-78
2021/09/12 02:15:40;;;;;;;28.10;18.73;;;;;;;10.94;99.69;100154.70;1714045;83;21173;-79
2021/09/12 02:18:06;;;;;;;28.80;18.23;;;;;;;10.92;99.62;100146.84;1715856;82;21073;-78
2021/09/12 02:20:34;;;;;;;28.95;18.50;;;;;;;10.93;99.71;100148.58;1716647;82;21011;-77
2021/09/12 02:23:01;;;;;;;24.92;17.07;;;;;;;10.89;99.76;100144.33;1716672;82;21038;-75
2021/09/12 02:25:29;;;;;;;26.62;17.05;;;;;;;10.89;99.88;100153.55;1714439;82;21561;-77
2021/09/12 02:27:55;;;;;;;28.42;17.52;;;;;;;10.90;100.00;100149.98;1713317;83;21731;-77
2021/09/12 02:30:22;;;;;;;24.55;16.95;;;;;;;10.89;99.94;100153.55;1713155;82;21105;-77
2021/09/12 02:32:48;;;;;;;23.90;16.23;;;;;;;10.87;99.98;100147.48;1713519;83;21026;-78
2021/09/12 02:35:15;;;;;;;26.45;16.12;;;;;;;10.86;100.00;100149.73;1713288;83;21070;-77
2021/09/12 02:37:42;;;;;;;24.50;16.55;;;;;;;10.85;100.00;100147.98;1713166;83;21151;-78
2021/09/12 02:40:10;;;;;;;28.98;17.75;;;;;;;10.82;100.00;100144.17;1713533;82;21101;-78
2021/09/12 02:42:38;;;;;;;26.70;17.37;;;;;;;10.79;100.00;100150.84;1714257;83;21002;-77
2021/09/12 02:45:08;;;;;;;29.05;17.95;;;;;;;10.75;100.00;100147.95;1714514;82;21773;-78
2021/09/12 02:47:35;;;;;;;26.68;17.85;;;;;;;10.74;100.00;100150.17;1714562;83;21022;-78
2021/09/12 02:50:02;;;;;;;27.40;17.37;;;;;;;10.73;100.00;100145.83;1715589;80;21077;-78
2021/09/12 02:52:29;;;;;;;26.25;17.05;;;;;;;10.73;100.00;100148.46;1718195;80;20967;-77
2021/09/12 02:54:55;;;;;;;25.05;16.57;;;;;;;10.73;100.00;100147.15;1717234;82;21042;-78
2021/09/12 02:57:21;;;;;;;23.57;16.12;;;;;;;10.73;100.00;100152.41;1715887;82;21054;-77
2021/09/12 02:59:48;;;;;;;22.15;15.78;;;;;;;10.69;100.00;100140.66;1726325;83;21081;-78
2021/09/12 03:02:14;;;;;;;25.70;16.95;;;;;;;10.68;100.00;100144.22;1726189;82;21167;-77
2021/09/12 03:04:41;;;;;;;25.20;16.00;;;;;;;10.69;100.00;100143.29;1726187;83;21114;-77
2021/09/12 03:07:07;;;;;;;21.65;15.28;;;;;;;10.68;100.00;100143.36;1726157;82;21531;-78
2021/09/12 03:09:34;;;;;;;24.50;16.25;;;;;;;10.67;100.00;100145.15;1726378;82;21516;-77
2021/09/12 03:12:02;;;;;;;24.85;15.48;;;;;;;10.65;100.00;100141.70;1725862;82;21078;-77
2021/09/12 03:14:29;;;;;;;25.80;16.45;;;;;;;10.64;100.00;100137.34;1726136;83;21560;-78
2021/09/12 03:16:57;;;;;;;27.55;16.73;;;;;;;10.63;100.00;100140.91;1726123;82;21037;-78
2021/09/12 03:19:25;;;;;;;23.92;16.40;;;;;;;10.60;100.00;100137.05;1726161;82;21077;-78
2021/09/12 03:21:52;;;;;;;26.85;16.30;;;;;;;10.60;100.00;100137.52;1725911;82;21033;-79
2021/09/12 03:24:19;;;;;;;20.37;15.00;;;;;;;10.60;100.00;100138.83;1726279;83;21061;-77
2021/09/12 03:26:46;;;;;;;25.15;15.30;;;;;;;10.58;100.00;100134.95;1726071;83;21532;-77
2021/09/12 03:29:14;;;;;;;22.93;16.37;;;;;;;10.56;100.00;100135.90;1726438;82;21508;-78
2021/09/12 03:31:41;;;;;;;22.90;15.38;;;;;;;10.59;100.00;100138.44;1726031;83;21042;-78
2021/09/12 03:34:07;;;;;;;26.75;14.90;;;;;;;10.59;100.00;100135.34;1726027;82;21013;-77
2021/09/12 03:36:34;;;;;;;37.58;15.93;;;;;;;10.60;100.00;100138.36;1725991;83;21100;-78
2021/09/12 03:39:01;;;;;;;33.90;16.15;;;;;;;10.63;100.00;100138.27;1726158;83;21060;-77
2021/09/12 03:41:28;;;;;;;37.17;16.48;;;;;;;10.63;100.00;100138.27;1726002;81;21263;-78
2021/09/12 03:43:56;;;;;;;41.63;17.25;;;;;;;10.68;100.00;100138.10;1725907;82;21533;-78
2021/09/12 03:46:24;;;;;;;26.68;16.60;;;;;;;10.70;100.00;100141.07;1725989;82;21105;-76
2021/09/12 03:48:50;;;;;;;37.03;17.70;;;;;;;10.74;100.00;100135.67;1726071;83;21295;-78
2021/09/12 03:51:17;;;;;;;30.97;16.40;;;;;;;10.78;100.00;100138.61;1726102;83;21069;-79
2021/09/12 03:53:43;;;;;;;28.57;15.88;;;;;;;10.83;100.00;100139.28;1726219;83;21963;-78
2021/09/12 03:56:10;;;;;;;24.87;15.78;;;;;;;10.88;100.00;100133.38;1722839;83;21077;-78
2021/09/12 03:58:37;;;;;;;28.77;15.88;;;;;;;10.95;100.00;100141.91;1714711;83;21175;-78
2021/09/12 04:01:03;;;;;;;25.17;15.28;;;;;;;11.03;100.00;100139.38;1707751;84;21116;-80
2021/09/12 04:03:30;;;;;;;25.12;15.58;;;;;;;11.22;100.00;100141.30;1707675;84;21069;-77
2021/09/12 04:05:57;;;;;;;20.92;14.65;;;;;;;11.52;100.00;100142.70;1707798;84;21477;-78
2021/09/12 04:08:23;;;;;;;25.05;14.73;;;;;;;11.87;100.00;100140.44;1707593;84;21045;-78
2021/09/12 04:12:51;;;;;;;24.50;15.50;;;;;;;12.56;99.50;100135.22;1814926;79;23262;-79
2021/09/12 04:15:19;;;;;;;25.62;15.58;;;;;;;12.86;98.42;100136.95;1783456;80;21552;-78
2021/09/12 04:17:45;;;;;;;21.48;15.18;;;;;;;13.22;96.76;100133.48;1788131;80;21207;-77
2021/09/12 04:20:13;;;;;;;20.80;14.35;;;;;;;13.57;95.22;100135.80;1788272;80;20988;-78
2021/09/12 04:22:40;;;;;;;23.50;14.78;;;;;;;13.93;93.91;100132.70;1786546;80;21052;-77
2021/09/12 04:25:07;;;;;;;21.00;14.50;;;;;;;14.34;93.12;100135.85;1786161;80;21053;-77
2021/09/12 04:27:34;;;;;;;21.07;14.13;;;;;;;14.78;92.12;100131.33;1785946;80;21021;-79
2021/09/12 04:30:01;;;;;;;24.40;14.38;;;;;;;15.22;90.39;100129.33;1785817;80;21130;-78
2021/09/12 04:32:29;;;;;;;23.85;15.30;;;;;;;15.65;88.31;100118.92;1785581;80;20976;-78
2021/09/12 04:34:55;;;;;;;19.77;14.25;;;;;;;16.08;86.39;100123.51;1785718;80;21088;-77
2021/09/12 04:37:21;;;;;;;21.50;13.50;;;;;;;16.48;83.96;100127.27;1785951;80;21067;-78
2021/09/12 04:39:48;;;;;;;19.92;14.28;;;;;;;16.87;82.34;100125.77;1785600;80;21020;-78
2021/09/12 04:42:14;;;;;;;22.15;13.95;;;;;;;17.23;80.75;100116.39;1785611;80;21116;-77
2021/09/12 04:44:42;;;;;;;18.30;14.35;;;;;;;17.62;79.05;100112.03;1785626;80;21020;-78
2021/09/12 04:47:08;;;;;;;19.75;14.80;;;;;;;17.96;77.34;100113.80;1785842;80;21012;-77
2021/09/12 04:49:35;;;;;;;22.22;15.93;;;;;;;18.35;76.51;100111.53;1785659;80;21088;-77
2021/09/12 04:52:02;;;;;;;22.22;14.87;;;;;;;18.77;75.88;100111.30;1785545;80;21067;-77
2021/09/12 04:54:28;;;;;;;22.93;15.05;;;;;;;19.12;74.96;100105.23;1785517;80;21146;-79
2021/09/12 04:56:55;;;;;;;17.98;13.50;;;;;;;19.56;73.30;100101.96;1785689;80;22171;-77
2021/09/12 04:59:22;;;;;;;24.25;13.93;;;;;;;20.00;71.68;100096.92;1786349;80;21013;-80
2021/09/12 05:01:50;;;;;;;24.25;15.38;;;;;;;20.27;69.40;100095.27;1785721;80;21092;-79
2021/09/12 05:04:16;;;;;;;20.27;14.03;;;;;;;20.49;69.16;100101.11;1785422;80;21051;-77
2021/09/12 05:06:43;;;;;;;19.85;13.40;;;;;;;20.77;68.19;100101.62;1785338;80;21084;-79
2021/09/12 05:09:10;;;;;;;23.65;13.55;;;;;;;21.13;66.79;100094.63;1785635;80;21032;-78
2021/09/12 05:11:38;;;;;;;22.15;13.05;;;;;;;21.58;65.16;100095.86;1783223;80;21330;-77
2021/09/12 05:14:07;;;;;;;20.65;13.38;;;;;;;21.97;63.78;100090.80;1781577;80;20954;-77
2021/09/12 05:16:34;;;;;;;21.33;13.83;;;;;;;22.41;62.25;100094.17;1780739;80;21013;-77
2021/09/12 05:19:02;;;;;;;20.55;13.68;;;;;;;22.85;60.64;100090.41;1779539;80;20982;-77
2021/09/12 05:21:29;;;;;;;43.42;14.68;;;;;;;23.18;58.55;100087.38;1777432;80;21049;-78
2021/09/12 05:23:58;;;;;;;31.30;13.58;;;;;;;23.43;57.91;100081.97;1777013;80;21038;-79
2021/09/12 05:26:26;;;;;;;28.57;14.03;;;;;;;23.74;56.73;100080.97;1777053;80;21142;-78
2021/09/12 05:28:53;;;;;;;28.45;14.45;;;;;;;23.95;55.78;100083.52;1777163;80;21535;-77
2021/09/12 05:31:21;;;;;;;24.23;12.47;;;;;;;24.17;55.24;100087.73;1777144;80;21600;-79
2021/09/12 05:33:47;;;;;;;17.77;12.93;;;;;;;24.36;54.59;100084.13;1772121;80;21040;-79
2021/09/12 05:36:14;;;;;;;15.68;12.25;;;;;;;24.58;53.92;100084.30;1746116;82;21515;-78
2021/09/12 05:38:40;;;;;;;16.10;12.20;;;;;;;24.90;52.93;100075.78;1746057;82;21095;-77
2021/09/12 05:41:07;;;;;;;17.07;12.80;;;;;;;25.33;52.11;100077.80;1746250;82;21564;-80
2021/09/12 05:43:34;;;;;;;16.35;11.95;;;;;;;25.77;51.10;100074.78;1746298;82;21729;-79
2021/09/12 05:46:00;;;;;;;14.95;11.43;;;;;;;26.20;49.66;100077.16;1746194;82;21068;-78
2021/09/12 05:48:28;;;;;;;14.47;11.10;;;;;;;26.63;47.91;100071.36;1749117;82;21056;-79
2021/09/12 05:50:56;;;;;;;20.75;12.00;;;;;;;26.86;46.73;100075.16;1749054;82;21076;-79
2021/09/12 05:53:24;;;;;;;14.65;10.55;;;;;;;27.12;45.92;100072.34;1748753;82;20953;-78
2021/09/12 05:55:51;;;;;;;17.05;11.43;;;;;;;27.54;44.71;100072.80;1747463;82;21125;-77
2021/09/12 05:58:18;;;;;;;16.05;11.25;;;;;;;27.94;43.07;100077.05;1746714;82;21024;-77
2021/09/12 06:00:46;;;;;;;16.15;11.50;;;;;;;28.10;42.96;100078.38;1746835;82;21049;-77
2021/09/12 06:03:12;;;;;;;13.18;10.50;;;;;;;28.38;41.05;100078.81;1719234;82;21009;-79
2021/09/12 06:05:39;;;;;;;14.75;11.05;;;;;;;28.59;40.11;100078.27;1746145;82;21089;-76
2021/09/12 06:08:06;;;;;;;16.57;10.60;;;;;;;28.78;39.71;100080.22;1746143;82;21311;-77
2021/09/12 06:10:33;;;;;;;16.95;10.53;;;;;;;28.95;38.78;100079.13;1746184;82;21081;-79
2021/09/12 06:13:00;;;;;;;12.53;10.40;;;;;;;29.18;38.23;100075.66;1745240;82;21091;-78
2021/09/12 06:15:27;;;;;;;14.55;10.30;;;;;;;29.45;37.00;100071.06;1746546;82;21625;-80
2021/09/12 06:17:54;;;;;;;14.28;9.98;;;;;;;29.55;36.80;100071.33;1746315;82;21092;-78
2021/09/12 06:20:22;;;;;;;15.38;9.25;;;;;;;29.77;36.63;100074.58;1708415;83;21181;-77
2021/09/12 06:22:51;;;;;;;11.55;8.80;;;;;;;29.95;35.27;100076.09;1688151;85;21549;-77
2021/09/12 06:25:18;;;;;;;15.50;10.25;;;;;;;30.02;35.65;100076.52;1688230;85;21621;-78
2021/09/12 06:27:45;;;;;;;12.65;10.40;;;;;;;30.27;35.13;100073.08;1688519;85;21062;-79
2021/09/12 06:30:11;;;;;;;14.85;9.88;;;;;;;30.48;34.49;100076.92;1688856;84;21074;-77
2021/09/12 06:32:38;;;;;;;14.03;9.70;;;;;;;30.61;33.33;100073.56;1688726;85;21153;-78
2021/09/12 06:35:06;;;;;;;14.47;9.48;;;;;;;30.63;32.79;100079.66;1688926;84;21034;-80
2021/09/12 06:37:33;;;;;;;16.40;10.23;;;;;;;30.53;32.88;100072.62;1688496;85;21723;-78
2021/09/12 06:40:00;;;;;;;17.85;10.35;;;;;;;30.60;32.57;100079.52;1688339;85;21101;-79
2021/09/12 06:42:27;;;;;;;11.75;9.63;;;;;;;30.73;32.59;100074.23;1688311;85;21152;-77
2021/09/12 06:44:54;;;;;;;13.05;9.80;;;;;;;30.97;32.17;100079.08;1688294;83;21155;-78
2021/09/12 06:47:21;;;;;;;12.20;9.58;;;;;;;31.32;30.95;100076.53;1687841;85;21089;-79
2021/09/12 06:49:47;;;;;;;13.22;9.30;;;;;;;31.55;30.66;100074.48;1688092;84;21601;-78
2021/09/12 06:52:16;;;;;;;10.18;8.55;;;;;;;31.82;30.03;100072.01;1687906;84;21046;-79
2021/09/12 06:54:42;;;;;;;13.38;9.53;;;;;;;31.94;29.75;100077.23;1688257;85;21557;-78
2021/09/12 06:57:10;;;;;;;14.30;9.45;;;;;;;32.12;29.67;100071.84;1688225;83;21094;-79
2021/09/12 06:59:36;;;;;;;13.55;9.53;;;;;;;32.26;28.97;100077.70;1688500;85;21273;-79
2021/09/12 07:02:04;;;;;;;12.40;9.10;;;;;;;32.23;29.18;100075.35;1688373;85;21553;-77
2021/09/12 07:04:31;;;;;;;12.45;9.53;;;;;;;32.33;29.08;100074.49;1690167;85;21542;-79
2021/09/12 07:06:57;;;;;;;11.75;8.65;;;;;;;32.49;28.62;100077.95;1652118;85;21094;-77
2021/09/12 07:09:23;;;;;;;11.30;9.03;;;;;;;32.45;28.82;100078.86;1691816;83;21522;-76
2021/09/12 07:11:52;;;;;;;16.27;9.98;;;;;;;32.75;28.99;100079.45;1695566;83;21086;-77
2021/09/12 07:14:20;;;;;;;15.85;9.90;;;;;;;33.05;28.34;100076.98;1713467;83;21647;-77
2021/09/12 07:16:49;;;;;;;17.57;10.38;;;;;;;33.11;28.10;100085.73;1666525;86;21364;-79
2021/09/12 07:19:17;;;;;;;16.85;9.85;;;;;;;33.35;28.02;100080.21;1665567;86;21091;-78
2021/09/12 07:21:45;;;;;;;13.18;9.73;;;;;;;33.71;27.40;100077.67;1665062;86;21245;-78
2021/09/12 07:24:12;;;;;;;13.93;9.20;;;;;;;33.70;27.30;100080.07;1665397;86;21067;-79
2021/09/12 07:26:39;;;;;;;16.12;9.78;;;;;;;33.70;27.54;100075.97;1665609;86;21142;-79
2021/09/12 07:29:08;;;;;;;13.55;9.25;;;;;;;34.18;26.55;100079.87;1666076;86;21091;-79
2021/09/12 07:31:35;;;;;;;15.83;9.80;;;;;;;34.40;26.28;100074.47;1665566;86;21127;-77
2021/09/12 07:34:02;;;;;;;13.85;9.83;;;;;;;34.63;25.68;100085.48;1666424;86;22344;-78
2021/09/12 07:36:29;;;;;;;14.68;9.10;;;;;;;34.62;25.70;100081.05;1668133;86;21083;-77
2021/09/12 07:38:57;;;;;;;16.30;9.90;;;;;;;34.69;25.51;100073.66;1666120;86;21109;-78
2021/09/12 07:41:25;;;;;;;18.15;10.10;;;;;;;34.54;25.14;100072.53;1665136;86;21131;-78
2021/09/12 07:43:54;;;;;;;12.93;9.68;;;;;;;34.19;25.86;100081.57;1666549;86;21585;-78
2021/09/12 07:46:21;;;;;;;18.03;9.60;;;;;;;33.95;26.20;100073.45;1643666;86;21129;-76
2021/09/12 07:48:48;;;;;;;17.17;10.03;;;;;;;33.87;26.37;100077.25;1705230;83;21078;-77
2021/09/12 07:51:15;;;;;;;19.65;10.65;;;;;;;33.88;26.16;100075.35;1711209;83;21025;-77
2021/09/12 07:53:42;;;;;;;17.05;10.30;;;;;;;34.03;25.85;100072.72;1711130;83;21066;-76
2021/09/12 07:56:08;;;;;;;12.73;9.38;;;;;;;33.81;26.00;100070.72;1710668;83;21655;-78
2021/09/12 07:58:35;;;;;;;14.75;9.93;;;;;;;33.55;26.59;100072.89;1710751;83;21142;-77
2021/09/12 08:01:04;;;;;;;17.52;9.88;;;;;;;33.71;26.39;100073.58;1710657;83;21137;-80
2021/09/12 08:03:30;;;;;;;13.20;9.28;;;;;;;33.92;26.87;100070.63;1710821;83;21069;-77
2021/09/12 08:05:57;;;;;;;20.75;10.60;;;;;;;34.38;25.61;100072.47;1710671;83;21997;-77
2021/09/12 08:08:24;;;;;;;16.73;10.23;;;;;;;34.76;25.51;100066.27;1710612;83;21125;-79
2021/09/12 08:10:52;;;;;;;15.32;9.68;;;;;;;35.08;24.93;100068.53;1710604;83;21222;-80
2021/09/12 08:13:18;;;;;;;16.57;9.70;;;;;;;35.29;24.77;100065.17;1709456;83;21053;-77
2021/09/12 08:15:47;;;;;;;17.20;9.65;;;;;;;35.56;24.78;100069.94;1710555;83;21086;-78
2021/09/12 08:18:13;;;;;;;18.27;10.18;;;;;;;35.94;23.74;100063.56;1710766;83;21117;-77
2021/09/12 08:20:40;;;;;;;16.10;10.45;;;;;;;36.22;22.95;100063.10;1710741;83;21025;-79
2021/09/12 08:23:07;;;;;;;19.55;8.93;;;;;;;36.26;23.01;100060.22;1710786;83;21528;-78
2021/09/12 08:25:35;;;;;;;15.90;9.45;;;;;;;36.11;23.29;100055.08;1711228;83;21073;-80
2021/09/12 08:28:02;;;;;;;13.13;9.68;;;;;;;36.23;23.09;100058.45;1710508;83;21055;-79
2021/09/12 08:30:28;;;;;;;17.07;9.60;;;;;;;36.27;22.53;100061.05;1710873;83;21063;-78
2021/09/12 08:32:55;;;;;;;14.75;8.88;;;;;;;36.08;22.30;100056.88;1710517;83;21582;-78
2021/09/12 08:35:21;;;;;;;19.10;8.33;;;;;;;35.68;22.72;100057.77;1711003;83;21129;-79
2021/09/12 08:37:48;;;;;;;11.75;8.08;;;;;;;35.68;22.56;100049.04;1710845;83;21109;-79
2021/09/12 08:40:15;;;;;;;13.08;8.55;;;;;;;35.76;22.77;100052.02;1711253;83;21043;-77
2021/09/12 08:42:42;;;;;;;15.93;9.05;;;;;;;35.98;22.80;100052.44;1711179;83;21022;-79
2021/09/12 08:45:11;;;;;;;10.53;7.15;;;;;;;36.28;22.44;100046.27;1711100;83;21102;-77
2021/09/12 08:47:37;;;;;;;8.58;7.05;;;;;;;36.54;21.29;100049.25;1711345;83;21513;-78
2021/09/12 08:50:07;;;;;;;11.83;7.72;;;;;;;36.60;20.90;100051.63;1713318;83;21129;-78
2021/09/12 08:52:33;;;;;;;9.80;7.67;;;;;;;36.83;20.43;100056.41;1710460;83;21662;-78
2021/09/12 08:55:00;;;;;;;12.55;8.10;;;;;;;36.95;21.02;100052.66;1710879;83;21580;-78
2021/09/12 08:57:41;;;;;;;14.38;8.08;;;;;;;37.27;20.98;100048.84;1711472;83;21050;-77
2021/09/12 09:00:15;;;;;;;10.88;8.10;;;;;;;37.27;20.26;100053.82;1695758;83;21074;-79
2021/09/12 09:02:41;;;;;;;10.63;7.75;;;;;;;37.06;20.56;100055.13;1710473;83;21333;-79
2021/09/12 09:05:09;;;;;;;12.10;7.35;;;;;;;37.14;20.34;100051.27;1710968;83;21062;-79
2021/09/12 09:07:35;;;;;;;8.80;7.50;;;;;;;37.10;19.65;100050.05;1710543;83;21058;-79
2021/09/12 09:10:05;;;;;;;15.75;8.50;;;;;;;37.05;20.56;100048.52;1710860;83;21549;-79
2021/09/12 09:12:35;;;;;;;11.48;7.97;;;;;;;37.19;20.39;100050.02;1705867;83;21127;-78
2021/09/12 09:15:15;;;;;;;10.90;7.67;;;;;;;36.88;20.28;100051.91;1685465;84;21083;-78
2021/09/12 09:17:47;;;;;;;10.27;7.23;;;;;;;36.26;20.87;100046.51;1685540;84;21066;-78
2021/09/12 09:20:17;;;;;;;9.45;7.28;;;;;;;36.00;21.34;100045.37;1685308;85;21070;-77
2021/09/12 09:22:49;;;;;;;8.05;7.00;;;;;;;36.19;21.34;100043.52;1685206;85;21062;-77
2021/09/12 09:25:26;;;;;;;13.18;8.48;;;;;;;36.41;21.34;100047.48;1685415;85;21127;-77
2021/09/12 09:28:06;;;;;;;9.10;7.45;;;;;;;36.49;20.46;100039.48;1685372;84;21113;-78
2021/09/12 09:30:54;;;;;;;11.55;7.90;;;;;;;36.21;21.22;100038.11;1685875;84;21039;-78
2021/09/12 09:33:27;;;;;;;8.60;7.22;;;;;;;36.13;21.31;100032.40;1685271;85;21561;-79
2021/09/12 09:36:06;;;;;;;11.20;7.60;;;;;;;36.01;21.10;100030.08;1685509;85;21047;-79
2021/09/12 09:39:03;;;;;;;13.67;7.90;;;;;;;35.87;21.05;100034.85;1685568;84;21207;-78
2021/09/12 09:41:41;;;;;;;12.30;8.25;;;;;;;35.82;21.55;100029.22;1683592;84;21658;-79
2021/09/12 09:44:12;;;;;;;14.40;8.03;;;;;;;35.84;21.02;100029.80;1685644;84;21065;-78
2021/09/12 09:46:41;;;;;;;11.93;7.67;;;;;;;35.82;21.35;100022.37;1686007;85;21053;-78
2021/09/12 09:49:26;;;;;;;14.93;7.97;;;;;;;36.04;21.42;100024.14;1685915;85;21003;-79
2021/09/12 09:51:58;;;;;;;14.25;7.53;;;;;;;35.90;21.46;100021.23;1685997;84;21122;-79
2021/09/12 09:54:27;;;;;;;11.93;7.58;;;;;;;35.60;21.80;100025.99;1685552;84;21078;-78
2021/09/12 09:56:54;;;;;;;10.23;6.75;;;;;;;35.48;21.95;100030.53;1687791;84;21055;-78
2021/09/12 09:59:23;;;;;;;10.38;7.58;;;;;;;35.78;21.47;100023.87;1688943;84;21043;-78
2021/09/12 10:01:52;;;;;;;9.55;7.42;;;;;;;36.07;20.76;100020.93;1686879;85;21118;-78
2021/09/12 10:04:23;;;;;;;11.45;7.10;;;;;;;36.28;21.05;100019.70;1685979;84;21534;-79
2021/09/12 10:06:51;;;;;;;35.85;20.62;;;;;;;36.41;20.93;100016.50;1685336;84;21137;-78
2021/09/12 10:09:18;;;;;;;14.20;8.65;;;;;;;36.50;20.99;100020.06;1685740;85;21826;-79
2021/09/12 10:11:59;;;;;;;9.85;7.30;;;;;;;36.55;20.88;100018.00;1685489;85;21046;-79
2021/09/12 10:14:38;;;;;;;10.75;7.08;;;;;;;36.47;20.46;100024.64;1707279;83;21073;-78
2021/09/12 10:17:11;;;;;;;12.45;7.12;;;;;;;36.35;20.38;100020.97;1710958;83;21215;-78
2021/09/12 10:19:40;;;;;;;9.65;7.53;;;;;;;36.13;20.86;100017.33;1710786;83;21141;-78
2021/09/12 10:22:14;;;;;;;11.83;8.03;;;;;;;36.05;21.16;100014.87;1710802;83;21053;-79
2021/09/12 10:25:06;;;;;;;12.93;7.40;;;;;;;35.78;20.70;100016.20;1711389;83;21027;-76
2021/09/12 10:27:40;;;;;;;12.55;9.48;;;;;;;35.46;21.13;100012.11;1711238;83;21379;-79
2021/09/12 10:30:39;;;;;;;17.57;8.43;;;;;;;35.30;21.37;100007.48;1710763;83;21082;-77
2021/09/12 10:33:16;;;;;;;13.78;7.75;;;;;;;34.92;22.56;100014.86;1710443;83;22218;-79
2021/09/12 10:35:56;;;;;;;13.62;8.50;;;;;;;34.87;22.31;100010.88;1710724;83;21077;-78
2021/09/12 10:38:29;;;;;;;9.28;7.35;;;;;;;34.85;22.38;100006.15;1709755;83;21522;-79
2021/09/12 10:41:05;;;;;;;14.80;7.55;;;;;;;34.93;22.06;100008.34;1710538;83;21375;-79
2021/09/12 10:43:41;;;;;;;11.30;7.67;;;;;;;34.81;22.13;99999.45;1710521;83;21136;-78
2021/09/12 10:46:13;;;;;;;11.60;7.78;;;;;;;34.60;22.26;100002.45;1710343;83;21073;-78
2021/09/12 10:48:47;;;;;;;10.63;7.60;;;;;;;34.55;22.41;99999.55;1710390;83;21081;-77
2021/09/12 10:51:23;;;;;;;12.50;7.55;;;;;;;34.57;22.08;100001.54;1708037;83;21030;-78
2021/09/12 10:53:59;;;;;;;11.15;7.33;;;;;;;34.21;22.43;100001.55;1710609;83;21101;-79
2021/09/12 10:56:31;;;;;;;11.80;7.33;;;;;;;34.00;22.44;99993.06;1710835;83;21076;-77
2021/09/12 10:59:11;;;;;;;11.38;7.30;;;;;;;33.85;22.65;100000.14;1710520;83;21077;-79
2021/09/12 11:01:46;;;;;;;13.32;7.53;;;;;;;33.07;23.35;99995.26;1710490;83;21090;-79
2021/09/12 11:04:15;;;;;;;11.22;8.10;;;;;;;32.68;23.89;99998.16;1710944;83;21027;-80
2021/09/12 11:06:43;;;;;;;14.35;8.40;;;;;;;32.73;24.69;99990.20;1710832;83;21057;-79
2021/09/12 11:09:22;;;;;;;9.68;7.58;;;;;;;33.00;24.60;99987.56;1711097;83;22203;-78
2021/09/12 11:12:02;;;;;;;10.08;7.58;;;;;;;33.26;23.60;99983.21;1710865;83;21041;-79
2021/09/12 11:14:29;;;;;;;13.93;8.23;;;;;;;33.33;23.86;99978.59;1711056;83;21050;-78
2021/09/12 11:17:10;;;;;;;14.83;7.85;;;;;;;33.54;23.28;99983.84;1711835;83;21066;-79
2021/09/12 11:19:37;;;;;;;10.25;7.87;;;;;;;33.63;23.43;99979.04;1711875;83;21077;-77
2021/09/12 11:22:05;;;;;;;20.25;8.73;;;;;;;33.53;23.38;99983.53;1712070;83;21094;-79